createdAt,value
2023-04-28T00:01:09.454Z,4.03
2023-04-28T00:06:11.972Z,2.90
2023-04-28T00:11:14.635Z,2.00
2023-04-28T00:16:16.320Z,2.40
2023-04-28T00:21:18.098Z,1.87
2023-04-28T00:26:19.790Z,2.00
2023-04-28T00:31:22.184Z,4.93
2023-04-28T00:36:23.833Z,1.80
2023-04-28T00:41:26.133Z,2.40
2023-04-28T00:46:32.111Z,3.63
2023-04-28T00:51:33.999Z,2.10
2023-04-28T00:56:36.362Z,2.20
2023-04-28T01:01:38.560Z,3.77
2023-04-28T01:06:41.943Z,3.67
2023-04-28T01:11:43.591Z,3.50
2023-04-28T01:16:46.998Z,2.17
2023-04-28T01:21:49.579Z,1.93
2023-04-28T01:26:55.710Z,1.87
2023-04-28T01:31:58.672Z,1.80
2023-04-28T01:37:00.441Z,2.53
2023-04-28T01:42:02.425Z,2.43
2023-04-28T01:47:04.150Z,1.93
2023-04-28T01:52:06.822Z,2.60
2023-04-28T01:57:08.678Z,2.07
2023-04-28T02:02:11.109Z,2.40
2023-04-28T02:07:12.970Z,2.50
2023-04-28T02:12:17.576Z,2.50
2023-04-28T02:17:20.453Z,2.20
2023-04-28T02:22:22.370Z,2.23
2023-04-28T02:27:23.979Z,2.43
2023-04-28T02:32:26.611Z,2.33
2023-04-28T02:37:28.334Z,2.10
2023-04-28T02:42:29.969Z,2.23
2023-04-28T02:47:32.109Z,2.53
2023-04-28T02:52:33.817Z,2.33
2023-04-28T02:57:35.597Z,2.27
2023-04-28T03:02:37.816Z,2.20
2023-04-28T03:07:39.660Z,2.53
2023-04-28T03:12:41.289Z,2.50
2023-04-28T03:17:44.034Z,2.27
2023-04-28T03:22:45.857Z,2.60
2023-04-28T03:27:47.603Z,5.40
2023-04-28T03:32:49.201Z,2.73
2023-04-28T03:37:50.877Z,2.53
2023-04-28T03:42:53.176Z,3.37
2023-04-28T03:48:02.232Z,3.47
2023-04-28T03:53:05.220Z,2.53
2023-04-28T03:58:07.854Z,4.33
2023-04-28T04:03:10.297Z,2.90
2023-04-28T04:08:12.126Z,3.10
2023-04-28T04:13:13.856Z,2.70
2023-04-28T04:18:18.824Z,2.83
2023-04-28T04:23:39.007Z,3.30
2023-04-28T04:28:40.701Z,3.10
2023-04-28T04:33:43.916Z,3.40
2023-04-28T04:38:46.763Z,2.80
2023-04-28T04:43:51.807Z,3.70
2023-04-28T04:48:53.761Z,2.70
2023-04-28T04:53:55.577Z,3.03
2023-04-28T04:58:58.105Z,2.60
2023-04-28T05:04:23.140Z,2.93
2023-04-28T05:09:25.718Z,3.40
2023-04-28T05:14:27.552Z,3.17
2023-04-28T05:19:30.293Z,2.77
2023-04-28T05:24:31.907Z,2.57
2023-04-28T05:29:34.458Z,3.23
2023-04-28T05:34:39.975Z,3.60
2023-04-28T05:40:27.540Z,4.97
2023-04-28T05:45:30.435Z,2.77
2023-04-28T05:50:32.714Z,3.07
2023-04-28T05:55:36.536Z,3.27
2023-04-28T06:00:39.315Z,3.57
2023-04-28T06:05:41.607Z,3.40
2023-04-28T06:10:44.729Z,5.20
2023-04-28T06:15:46.444Z,3.30
2023-04-28T06:20:48.422Z,4.03
2023-04-28T06:25:50.142Z,5.00
2023-04-28T06:30:51.764Z,3.43
2023-04-28T06:35:54.471Z,3.87
2023-04-28T06:40:56.406Z,3.83
2023-04-28T06:45:58.282Z,3.67
2023-04-28T06:51:01.943Z,3.53
2023-04-28T06:56:04.244Z,3.27
2023-04-28T07:01:05.974Z,2.77
2023-04-28T07:06:09.007Z,3.30
2023-04-28T07:11:10.643Z,3.40
2023-04-28T07:16:12.428Z,3.57
2023-04-28T07:21:14.917Z,4.37
2023-04-28T07:26:16.616Z,2.93
2023-04-28T07:31:18.365Z,3.63
2023-04-28T07:36:20.430Z,2.90
2023-04-28T07:41:22.071Z,3.77
2023-04-28T07:46:23.889Z,2.90
2023-04-28T07:51:25.667Z,3.70
2023-04-28T07:56:28.163Z,2.60
2023-04-28T08:01:29.750Z,3.73
2023-04-28T08:06:31.349Z,2.63
2023-04-28T08:11:33.553Z,2.30
2023-04-28T08:16:39.395Z,2.53
2023-04-28T08:21:41.179Z,3.70
2023-04-28T08:26:42.894Z,3.30
2023-04-28T08:31:44.672Z,3.13
2023-04-28T08:36:46.534Z,2.57
2023-04-28T08:41:48.149Z,3.20
2023-04-28T08:46:50.119Z,2.17
2023-04-28T08:52:00.127Z,1.90
2023-04-28T08:57:02.327Z,1.87
2023-04-28T09:02:04.579Z,2.93
2023-04-28T09:07:13.950Z,1.93
2023-04-28T09:12:16.089Z,2.17
2023-04-28T09:17:17.851Z,1.70
2023-04-28T09:22:28.226Z,1.70
2023-04-28T09:27:30.024Z,2.20
2023-04-28T09:32:31.926Z,1.90
2023-04-28T09:37:34.654Z,2.10
2023-04-28T09:42:43.842Z,2.80
2023-04-28T09:47:47.155Z,2.17
2023-04-28T09:52:57.322Z,2.20
2023-04-28T09:58:02.089Z,2.67
2023-04-28T10:03:11.790Z,2.10
2023-04-28T10:08:15.772Z,1.90
2023-04-28T10:13:17.985Z,2.00
2023-04-28T10:18:19.663Z,2.10
2023-04-28T10:23:39.372Z,1.70
2023-04-28T10:28:51.333Z,1.83
2023-04-28T10:33:52.930Z,1.70
2023-04-28T10:39:14.456Z,1.70
2023-04-28T10:44:31.043Z,2.00
2023-04-28T10:49:51.581Z,1.57
2023-04-28T10:55:32.685Z,2.10
2023-04-28T11:00:34.387Z,1.90
2023-04-28T11:05:36.877Z,1.70
2023-04-28T11:11:10.173Z,1.93
2023-04-28T11:16:21.209Z,2.07
2023-04-28T11:21:25.150Z,1.90
2023-04-28T11:26:27.725Z,1.70
2023-04-28T11:31:29.314Z,1.90
2023-04-28T11:36:35.959Z,2.40
2023-04-28T11:41:41.754Z,2.17
2023-04-28T11:46:57.361Z,1.80
2023-04-28T11:52:09.217Z,1.33
2023-04-28T11:57:18.867Z,2.50
2023-04-28T12:02:28.928Z,1.70
2023-04-28T12:07:42.310Z,1.60
2023-04-28T12:12:51.734Z,1.70
2023-04-28T12:17:55.816Z,1.80
2023-04-28T12:22:57.773Z,1.80
2023-04-28T12:27:59.335Z,1.50
2023-04-28T12:33:01.139Z,1.57
2023-04-28T12:38:02.972Z,1.60
2023-04-28T12:43:04.552Z,2.90
2023-04-28T12:48:06.549Z,1.43
2023-04-28T12:53:11.161Z,1.70
2023-04-28T12:58:12.794Z,1.63
2023-04-28T13:03:15.837Z,1.60
2023-04-28T13:08:17.731Z,1.33
2023-04-28T13:13:19.325Z,1.50
2023-04-28T13:18:21.000Z,1.23
2023-04-28T13:23:27.944Z,1.50
2023-04-28T13:28:29.884Z,1.77
2023-04-28T13:33:31.732Z,1.60
2023-04-28T13:38:33.424Z,1.20
2023-04-28T13:43:35.182Z,1.60
2023-04-28T13:48:37.543Z,1.60
2023-04-28T13:53:39.767Z,2.00
2023-04-28T13:58:41.623Z,2.07
2023-04-28T14:03:44.542Z,1.50
2023-04-28T14:08:46.453Z,1.10
2023-04-28T14:13:48.038Z,1.57
2023-04-28T14:18:49.829Z,1.70
2023-04-28T14:23:51.895Z,1.70
2023-04-28T14:28:54.275Z,2.00
2023-04-28T14:33:55.957Z,1.33
2023-04-28T14:38:58.279Z,1.02
2023-04-28T14:43:59.987Z,1.60
2023-04-28T14:49:02.486Z,1.70
2023-04-28T14:54:04.473Z,1.40
2023-04-28T14:59:06.267Z,2.03
2023-04-28T15:04:09.707Z,2.10
2023-04-28T15:09:11.947Z,1.77
2023-04-28T15:14:13.971Z,1.80
2023-04-28T15:19:15.878Z,1.70
2023-04-28T15:24:19.932Z,1.00
2023-04-28T15:29:22.596Z,0.57
2023-04-28T15:34:25.735Z,0.60
2023-04-28T15:39:28.551Z,0.60
2023-04-28T15:44:31.113Z,0.73
2023-04-28T15:49:32.980Z,0.70
2023-04-28T15:54:37.213Z,0.70
2023-04-28T15:59:40.412Z,0.50
2023-04-28T16:04:42.918Z,0.63
2023-04-28T16:09:44.785Z,0.40
2023-04-28T16:14:50.949Z,0.43
2023-04-28T16:19:52.988Z,0.50
2023-04-28T16:24:55.337Z,0.63
2023-04-28T16:29:57.216Z,0.73
2023-04-28T16:34:59.473Z,1.30
2023-04-28T16:40:02.280Z,1.10
2023-04-28T16:45:05.303Z,0.97
2023-04-28T16:50:09.529Z,1.23
2023-04-28T16:55:18.949Z,1.17
2023-04-28T17:00:21.454Z,1.23
2023-04-28T17:05:23.152Z,1.50
2023-04-28T17:10:27.018Z,1.27
2023-04-28T17:15:28.925Z,1.03
2023-04-28T17:20:30.955Z,1.50
2023-04-28T17:25:33.233Z,1.13
2023-04-28T17:30:36.258Z,0.90
2023-04-28T17:35:38.260Z,1.03
2023-04-28T17:40:40.201Z,0.80
2023-04-28T17:45:42.015Z,0.77
2023-04-28T17:50:48.256Z,1.23
2023-04-28T17:55:49.933Z,0.80
2023-04-28T18:00:59.695Z,0.73
2023-04-28T18:06:01.452Z,0.77
2023-04-28T18:11:03.606Z,1.07
2023-04-28T18:16:05.736Z,0.70
2023-04-28T18:21:08.218Z,0.63
2023-04-28T18:26:09.738Z,1.00
2023-04-28T18:31:12.475Z,0.70
2023-04-28T18:36:14.032Z,0.80
2023-04-28T18:41:19.218Z,1.00
2023-04-28T18:46:21.118Z,0.50
2023-04-28T18:51:25.213Z,0.60
2023-04-28T18:56:26.964Z,0.60
2023-04-28T19:01:29.345Z,0.97
2023-04-28T19:06:31.224Z,0.50
2023-04-28T19:11:32.826Z,0.70
2023-04-28T19:16:34.510Z,0.60
2023-04-28T19:21:46.083Z,0.57
2023-04-28T19:26:49.361Z,0.57
2023-04-28T19:31:51.235Z,0.50
2023-04-28T19:36:55.553Z,0.50
2023-04-28T19:41:57.282Z,0.43
2023-04-28T19:47:02.365Z,0.50
2023-04-28T19:52:07.503Z,0.77
2023-04-28T19:57:09.179Z,0.90
2023-04-28T20:02:10.890Z,0.70
2023-04-28T20:07:13.194Z,0.70
2023-04-28T20:12:15.285Z,1.40
2023-04-28T20:17:18.325Z,0.77
2023-04-28T20:22:19.973Z,0.93
2023-04-28T20:27:22.594Z,1.20
2023-04-28T20:32:24.259Z,1.43
2023-04-28T20:37:26.503Z,0.60
2023-04-28T20:42:29.235Z,0.83
2023-04-28T20:47:31.954Z,0.80
2023-04-28T20:52:33.586Z,0.87
2023-04-28T20:57:36.200Z,0.70
2023-04-28T21:02:38.028Z,2.83
2023-04-28T21:07:40.765Z,1.33
2023-04-28T21:12:42.454Z,0.90
2023-04-28T21:17:44.464Z,1.10
2023-04-28T21:22:47.521Z,1.00
2023-04-28T21:27:49.241Z,0.87
2023-04-28T21:32:51.004Z,1.00
2023-04-28T21:37:52.656Z,1.50
2023-04-28T21:42:54.431Z,0.93
2023-04-28T21:47:58.296Z,1.03
2023-04-28T21:52:59.964Z,1.50
2023-04-28T21:58:01.708Z,1.30
2023-04-28T22:03:03.856Z,1.20
2023-04-28T22:08:06.722Z,2.07
2023-04-28T22:13:09.177Z,1.10
2023-04-28T22:18:10.768Z,1.07
2023-04-28T22:23:12.568Z,1.20
2023-04-28T22:28:14.254Z,1.67
2023-04-28T22:33:16.128Z,2.00
2023-04-28T22:38:17.932Z,1.37
2023-04-28T22:43:19.589Z,1.60
2023-04-28T22:48:21.642Z,2.00
2023-04-28T22:53:27.706Z,1.60
2023-04-28T22:58:29.408Z,2.00
2023-04-28T23:03:31.339Z,2.20
2023-04-28T23:08:35.334Z,2.10
2023-04-28T23:13:37.037Z,2.37
2023-04-28T23:18:38.818Z,2.60
2023-04-28T23:23:40.963Z,3.03
2023-04-28T23:28:43.100Z,2.77
2023-04-28T23:33:45.094Z,3.00
2023-04-28T23:38:46.838Z,2.97
2023-04-28T23:43:48.696Z,3.53
2023-04-28T23:48:50.840Z,3.20
2023-04-28T23:53:52.560Z,3.43
2023-04-28T23:58:54.402Z,3.17
